Latest Weather Observations for Scone Airport

IDN60801

Issued at 12:32 pm EST Monday 3 August 2015 (issued every 30 minutes, with the page automatically refreshed every 10 minutes)

About weather observations | Map of weather stations | Latest weather observations for NSW | Other Formats
Station Details ID: 061363 Name: SCONE AIRPORT AWS Lat: -32.03 Lon: 150.83 Height: 221.4 m
Data from the previous 72 hours. | See also: Recent months at Scone Airport
Date/Time
EST
Temp
°C
App
Temp
°C
Dew
Point
Rel
Hum
%
Delta-T
°C
Wind Press
QNH
hPa
Press
MSL
hPa
Rain
since 9 am
mm
Dir
 
Spd
km/h
Gust
km/h
Spd
kts
Gust
kts
03/12:30pm 15.9 10.3 3.7 44 5.7 W 22 33 12 18 1017.1 1017.2 0.0
03/12:00pm 15.4 9.3 2.9 43 5.7 W 24 35 13 19 1017.5 1017.6 0.0
03/11:30am 14.9 8.6 1.8 41 5.8 WNW 24 32 13 17 1017.9 1018.0 0.0
03/11:00am 14.2 8.4 2.1 44 5.4 WNW 22 32 12 17 1018.3 1018.4 0.0
03/10:30am 13.2 6.6 2.1 47 4.9 WNW 26 32 14 17 1018.7 1018.8 0.0
03/10:00am 12.5 5.2 2.7 51 4.3 WNW 30 43 16 23 1018.8 1018.9 0.0
03/09:30am 11.6 4.6 2.1 52 4.1 WNW 28 37 15 20 1019.1 1019.2 0.0
03/09:00am 10.6 3.2 1.7 54 3.8 WNW 30 37 16 20 1018.9 1019.0 0.0
03/08:30am 9.9 2.5 1.8 57 3.4 WNW 30 41 16 22 1018.9 1019.0 0.0
03/08:00am 9.2 3.1 0.6 55 3.5 WNW 22 33 12 18 1018.7 1018.8 0.0
03/07:30am 8.8 4.2 1.7 61 3.0 NW 15 20 8 11 1018.2 1018.3 0.0
03/07:00am 9.2 3.0 2.1 61 3.0 WNW 24 35 13 19 1017.5 1017.6 0.0
03/06:30am 10.1 4.9 2.5 59 3.3 NW 19 32 10 17 1017.2 1017.3 0.0
03/06:00am 8.4 5.1 2.2 65 2.6 ESE 9 13 5 7 1016.7 1016.8 0.0
03/05:30am 9.7 7.1 3.2 64 2.8 S 6 11 3 6 1016.3 1016.5 0.0
03/05:00am 11.3 7.9 3.8 60 3.4 NNW 11 26 6 14 1015.5 1015.6 0.0
03/04:30am 11.3 8.2 5.6 68 2.7 WNW 11 22 6 12 1015.3 1015.4 0.0
03/04:00am 12.4 8.9 5.3 62 3.3 W 13 22 7 12 1015.0 1015.1 0.0
03/03:30am 14.4 8.8 5.2 54 4.4 WNW 24 33 13 18 1014.8 1014.9 0.0
03/03:00am 13.2 9.0 5.6 60 3.6 NW 17 22 9 12 1014.7 1014.8 0.0
03/02:30am 13.8 9.5 5.4 57 4.0 NW 17 22 9 12 1014.9 1015.0 0.0
03/02:00am 14.4 9.9 6.0 57 4.1 NW 19 26 10 14 1015.0 1015.1 0.0
03/01:30am 15.1 10.5 6.4 56 4.3 NW 20 26 11 14 1015.2 1015.3 0.0
03/01:00am 15.5 11.2 6.8 56 4.3 NW 19 24 10 13 1015.5 1015.6 0.0
03/12:30am 16.0 11.7 7.7 58 4.2 NW 20 30 11 16 1015.5 1015.6 0.0
03/12:00am 16.2 11.6 8.2 59 4.1 NW 22 28 12 15 1015.5 1015.6 0.0
 
Date/Time
EST
Temp
°C
App
Temp
°C
Dew
Point
Rel
Hum
%
Delta-T
°C
Wind Press
QNH
hPa
Press
MSL
hPa
Rain
since 9 am
mm
Dir
 
Spd
km/h
Gust
km/h
Spd
kts
Gust
kts
02/11:30pm 16.7 12.8 8.7 59 4.2 W 19 26 10 14 1015.6 1015.7 0.0
02/11:00pm 18.1 14.3 9.2 56 4.7 WNW 19 30 10 16 1015.2 1015.3 0.0
02/10:30pm 17.7 14.3 9.1 57 4.5 WNW 17 20 9 11 1014.7 1014.8 0.0
02/10:00pm 17.9 14.5 9.0 56 4.7 NW 17 22 9 12 1014.8 1014.9 0.0
02/09:30pm 18.9 15.4 8.6 51 5.4 NW 17 24 9 13 1014.7 1014.8 0.0
02/09:00pm 20.3 16.2 8.6 47 6.2 NW 20 32 11 17 1014.7 1014.8 0.0
02/08:30pm 20.6 15.7 8.6 46 6.4 NNW 24 33 13 18 1014.8 1014.9 0.0
02/08:00pm 21.2 16.5 9.1 46 6.5 NNW 24 41 13 22 1014.6 1014.7 0.0
02/07:30pm 19.0 16.3 8.9 52 5.3 NW 13 19 7 10 1014.7 1014.8 0.0
02/07:00pm 20.2 16.9 7.9 45 6.4 NNW 15 24 8 13 1014.5 1014.6 0.0
02/06:30pm 20.9 16.8 7.9 43 6.8 NNW 19 35 10 19 1014.2 1014.3 0.0
02/06:00pm 21.0 17.5 7.3 41 7.1 NNW 15 20 8 11 1013.9 1014.0 0.0
02/05:30pm 21.8 17.5 6.9 38 7.7 NNW 19 30 10 16 1013.6 1013.7 0.0
02/05:00pm 22.6 17.4 7.2 37 8.1 NNW 24 37 13 20 1013.2 1013.3 0.0
02/04:30pm 22.5 18.5 6.7 36 8.2 NNW 17 26 9 14 1013.0 1013.1 0.0
02/04:00pm 22.6 18.3 6.8 36 8.2 NNW 19 30 10 16 1012.9 1013.0 0.0
02/03:30pm 22.9 18.3 6.6 35 8.4 NNW 20 33 11 18 1013.0 1013.1 0.0
02/03:00pm 22.9 16.8 6.6 35 8.4 NNW 28 48 15 26 1012.9 1013.0 0.0
02/02:58pm 22.8 16.7 6.6 35 8.4 NNW 28 48 15 26 1013.0 1013.1 0.0
02/02:30pm 24.1 18.4 6.8 33 9.1 NNW 26 43 14 23 1012.9 1013.0 0.0
02/02:06pm 23.8 16.9 6.6 33 9.0 NNW 32 52 17 28 1013.0 1013.1 0.0
02/02:00pm 23.6 17.7 7.3 35 8.6 NNW 28 44 15 24 1013.2 1013.3 0.0
02/01:39pm 23.7 16.9 7.8 36 8.5 NNW 33 52 18 28 1013.3 1013.4 0.0
02/01:30pm 23.4 16.3 6.2 33 8.9 NW 33 50 18 27 1013.5 1013.6 0.0
02/01:01pm 23.1 16.0 6.4 34 8.6 NW 33 52 18 28 1014.1 1014.2 0.0
02/01:00pm 23.0 15.6 6.7 35 8.5 NW 35 52 19 28 1014.1 1014.2 0.0
02/12:43pm 23.2 16.2 6.0 33 8.8 NNW 32 50 17 27 1014.5 1014.6 0.0
02/12:30pm 23.0 16.0 5.9 33 8.8 NW 32 46 17 25 1014.7 1014.8 0.0
02/12:00pm 22.5 15.3 5.0 32 8.8 NNW 32 43 17 23 1015.4 1015.5 0.0
02/11:36am 22.6 15.1 4.6 31 9.0 NNW 33 54 18 29 1015.9 1016.1 0.0
02/11:30am 22.5 15.2 4.5 31 8.9 NNW 32 48 17 26 1016.1 1016.3 0.0
02/11:16am 22.4 14.5 4.5 31 8.9 NNW 35 54 19 29 1016.4 1016.6 0.0
02/11:00am 22.7 16.1 4.2 30 9.1 NNW 28 41 15 22 1016.9 1017.0 0.0
02/10:56am 22.8 16.1 5.7 33 8.7 NNW 30 48 16 26 1017.0 1017.1 0.0
02/10:30am 21.9 14.5 4.0 31 8.8 NNW 32 48 17 26 1017.3 1017.4 0.0
02/10:24am 21.8 14.7 3.5 30 8.9 NW 30 48 16 26 1017.3 1017.4 0.0
02/10:00am 21.0 13.6 4.1 33 8.2 NW 32 43 17 23 1017.6 1017.7 0.0
02/09:30am 20.5 14.7 4.5 35 7.8 NW 24 33 13 18 1017.6 1017.7 0.0
02/09:00am 17.9 15.0 6.7 48 5.6 NNW 11 20 6 11 1017.8 1017.9 0.0
02/08:49am 16.8 13.8 6.0 49 5.3 NNW 11 17 6 9 1017.8 1017.9 0.0
02/08:30am 11.5 9.4 5.8 68 2.7 ESE 6 9 3 5 1017.8 1017.9 0.0
02/08:00am 12.0 9.5 4.7 61 3.4 ESE 7 13 4 7 1017.2 1017.3 0.0
02/07:30am 10.6 8.2 5.4 70 2.4 SSE 7 17 4 9 1017.0 1017.1 0.0
02/07:00am 8.6 6.8 3.2 69 2.3 SSW 2 6 1 3 1016.9 1017.0 0.0
02/06:30am 9.7 7.5 3.2 64 2.8 NNW 4 9 2 5 1016.5 1016.7 0.0
02/06:00am 10.3 8.1 3.6 63 3.0 NW 4 7 2 4 1016.7 1016.8 0.0
02/05:30am 10.2 8.1 4.1 66 2.7 NNW 4 7 2 4 1016.9 1017.0 0.0
02/05:00am 10.3 7.2 3.6 63 3.0 NW 9 13 5 7 1016.8 1016.9 0.0
02/04:30am 12.4 9.2 5.1 61 3.4 NNW 11 13 6 7 1017.0 1017.1 0.0
02/04:16am 11.2 8.1 3.7 60 3.4 N 9 13 5 7 1017.0 1017.1 0.0
02/04:00am 16.2 13.1 5.5 49 5.2 N 11 17 6 9 1016.9 1017.0 0.0
02/03:56am 15.5 12.5 6.0 53 4.6 N 11 17 6 9 1017.0 1017.1 0.0
02/03:30am 10.5 7.5 4.2 65 2.8 NW 9 11 5 6 1017.2 1017.3 0.0
02/03:00am 11.1 8.8 4.6 64 3.0 W 6 9 3 5 1017.4 1017.5 0.0
02/02:30am 12.1 10.2 4.8 61 3.4 NNW 4 6 2 3 1017.6 1017.7 0.0
02/02:00am 13.7 10.2 5.6 58 3.9 NW 13 17 7 9 1017.6 1017.7 0.0
02/01:30am 13.2 10.2 6.1 62 3.4 NNW 11 15 6 8 1017.8 1017.9 0.0
02/01:00am 9.8 8.4 5.4 74 2.0 NW 2 9 1 5 1018.0 1018.1 0.0
02/12:30am 11.5 10.2 6.0 69 2.6 NNW 2 7 1 4 1018.1 1018.2 0.0
02/12:00am 11.2 9.5 4.0 61 3.2 N 2 6 1 3 1018.4 1018.5 0.0
 
Date/Time
EST
Temp
°C
App
Temp
°C
Dew
Point
Rel
Hum
%
Delta-T
°C
Wind Press
QNH
hPa
Press
MSL
hPa
Rain
since 9 am
mm
Dir
 
Spd
km/h
Gust
km/h
Spd
kts
Gust
kts
01/11:30pm 13.9 11.1 5.0 55 4.2 W 9 11 5 6 1018.7 1018.8 0.0
01/11:00pm 15.3 13.5 5.2 51 4.8 NW 4 9 2 5 1018.7 1018.8 0.0
01/10:30pm 15.9 12.5 5.8 51 4.9 N 13 17 7 9 1018.5 1018.6 0.0
01/10:00pm 14.1 11.1 6.0 58 3.9 N 11 19 6 10 1018.7 1018.8 0.0
01/09:30pm 13.5 11.3 5.4 58 3.8 NNW 6 11 3 6 1019.1 1019.2 0.0
01/09:00pm 13.4 11.0 5.3 58 3.8 N 7 11 4 6 1019.3 1019.4 0.0
01/08:30pm 14.4 11.3 5.5 55 4.3 N 11 13 6 7 1019.1 1019.2 0.0
01/08:00pm 14.8 11.8 5.9 55 4.3 N 11 15 6 8 1019.1 1019.2 0.0
01/07:30pm 15.8 12.7 5.7 51 4.9 N 11 15 6 8 1019.1 1019.2 0.0
01/07:00pm 16.8 13.3 5.4 47 5.5 NNW 13 19 7 10 1018.6 1018.7 0.0
01/06:30pm 15.5 11.9 5.1 50 5.0 N 13 17 7 9 1018.2 1018.3 0.0
01/06:00pm 17.1 14.4 5.4 46 5.7 N 9 13 5 7 1018.4 1018.5 0.0
01/05:30pm 17.0 13.5 5.3 46 5.7 NW 13 19 7 10 1018.4 1018.5 0.0
01/05:00pm 18.4 15.9 6.6 46 5.9 NW 9 15 5 8 1018.2 1018.3 0.0
01/04:30pm 19.7 16.3 5.7 40 7.0 NW 13 22 7 12 1017.9 1018.0 0.0
01/04:00pm 19.9 16.5 7.6 45 6.4 NW 15 20 8 11 1017.9 1018.0 0.0
01/03:30pm 20.3 16.2 6.3 40 7.1 NW 17 24 9 13 1018.1 1018.2 0.0
01/03:00pm 20.1 15.5 5.4 38 7.3 NNW 19 28 10 15 1018.2 1018.3 0.0
01/02:30pm 19.2 13.5 4.9 39 7.0 NW 24 39 13 21 1018.4 1018.5 0.0
01/02:00pm 19.7 13.6 4.6 37 7.4 NW 26 41 14 22 1018.4 1018.5 0.0
01/01:30pm 20.6 15.5 4.2 34 8.0 NW 20 30 11 16 1018.6 1018.7 0.0
01/01:00pm 20.1 14.4 2.9 32 8.1 NW 22 33 12 18 1018.3 1018.4 0.0
01/12:30pm 20.5 13.6 4.5 35 7.8 NW 30 43 16 23 1018.8 1018.9 0.0
01/12:00pm 19.6 12.2 4.1 36 7.5 NW 32 41 17 22 1019.5 1019.7 0.0
01/11:30am 19.7 15.2 6.8 43 6.6 WNW 20 33 11 18 1020.4 1020.6 0.0
01/11:00am 18.3 13.4 5.2 42 6.4 NW 20 32 11 17 1020.4 1020.6 0.0
01/10:30am 18.4 14.0 4.6 40 6.7 NW 17 32 9 17 1020.8 1021.0 0.0
01/10:00am 17.5 13.3 5.8 46 5.7 NW 17 22 9 12 1020.8 1021.0 0.0
01/09:30am 17.3 16.1 6.5 49 5.4 WNW 2 9 1 5 1020.8 1021.1 0.0
01/09:00am 14.3 12.6 8.5 68 2.9 NW 7 11 4 6 1020.8 1021.1 0.0
01/08:30am 11.3 10.4 9.2 87 1.1 NNW 4 7 2 4 1020.6 1020.9 0.0
01/08:00am 8.9 8.4 7.8 93 0.5 CALM 0 0 0 0 1020.7 1021.0 0.0
01/07:30am 5.0 3.4 4.3 95 0.3 NNW 2 7 1 4 1020.5 1020.8 0.0
01/07:00am 3.1 -0.2 2.2 94 0.4 NW 9 11 5 6 1020.2 1020.5 0.0
01/06:30am 3.9 1.4 3.8 99 0.0 NW 6 9 3 5 1020.0 1020.3 0.0
01/06:00am 3.4 1.9 3.1 98 0.1 CALM 0 0 0 0 1019.9 1020.2 0.0
01/05:30am 3.6 1.8 3.2 97 0.2 WNW 2 7 1 4 1019.7 1020.0 0.0
01/05:00am 5.4 2.0 4.2 92 0.5 N 11 15 6 8 1019.9 1020.2 0.0
01/04:30am 3.1 -0.1 3.0 99 0.0 WNW 9 11 5 6 1020.0 1020.3 0.0
01/04:00am 5.1 1.8 4.5 96 0.3 N 11 15 6 8 1020.0 1020.3 0.0
01/03:30am 3.1 0.8 2.8 98 0.1 NNW 4 9 2 5 1020.4 1020.7 0.0
01/03:00am 3.1 0.8 3.0 99 0.0 NNE 4 7 2 4 1020.6 1020.9 0.0
01/02:30am 3.0 1.5 2.9 99 0.0 CALM 0 0 0 0 1020.8 1021.1 0.0
01/02:00am 3.3 0.7 3.2 99 0.0 WNW 6 7 3 4 1021.0 1021.3 0.0
01/01:30am 2.9 0.2 2.8 99 0.0 NNW 6 7 3 4 1021.4 1021.6 0.0
01/01:00am 2.9 1.3 2.2 95 0.3 CALM 0 0 0 0 1021.6 1021.8 0.0
01/12:30am 4.3 2.6 4.0 98 0.1 W 2 6 1 3 1021.9 1022.1 0.0
01/12:00am 3.9 2.1 3.2 95 0.3 W 2 6 1 3 1022.0 1022.2 0.0
 
Date/Time
EST
Temp
°C
App
Temp
°C
Dew
Point
Rel
Hum
%
Delta-T
°C
Wind Press
QNH
hPa
Press
MSL
hPa
Rain
since 9 am
mm
Dir
 
Spd
km/h
Gust
km/h
Spd
kts
Gust
kts
31/11:30pm 4.3 2.9 3.7 96 0.3 CALM 0 0 0 0 1022.1 1022.3 0.0
31/11:00pm 5.0 3.6 3.5 90 0.6 CALM 0 2 0 1 1022.0 1022.2 0.0
31/10:30pm 5.9 4.4 5.0 94 0.4 W 2 7 1 4 1022.1 1022.3 0.0
31/10:00pm 5.1 2.5 3.0 86 0.9 W 6 9 3 5 1022.0 1022.2 0.0
31/09:30pm 5.9 4.6 3.9 87 0.9 CALM 0 0 0 0 1022.0 1022.2 0.0
31/09:00pm 6.1 4.0 3.8 85 1.0 NW 4 9 2 5 1022.0 1022.2 0.0
31/08:30pm 7.1 5.2 5.1 87 0.9 NW 4 9 2 5 1021.8 1022.0 0.0
31/08:00pm 7.2 5.2 4.2 81 1.3 NNW 4 9 2 5 1021.8 1022.0 0.0
31/07:30pm 9.3 8.2 5.3 76 1.8 CALM 0 0 0 0 1021.6 1021.8 0.0
31/07:00pm 8.8 6.7 4.0 72 2.1 NNW 4 6 2 3 1021.4 1021.6 0.0
31/06:30pm 9.8 7.8 4.2 68 2.5 NNE 4 7 2 4 1021.1 1021.4 0.0
31/06:00pm 11.2 8.8 4.2 62 3.2 NE 6 7 3 4 1020.8 1021.1 0.0
31/05:30pm 14.0 11.9 3.8 50 4.7 NNW 4 7 2 4 1020.5 1020.8 0.0
31/05:00pm 15.5 12.3 3.3 44 5.6 NW 9 13 5 7 1020.3 1020.6 0.0
31/04:30pm 17.0 13.7 4.7 44 5.9 NW 11 17 6 9 1020.2 1020.5 0.0
31/04:00pm 18.0 14.0 4.9 42 6.3 NW 15 17 8 9 1020.1 1020.4 0.0
31/03:30pm 18.2 13.7 4.4 40 6.6 NW 17 24 9 13 1020.0 1020.3 0.0
31/03:00pm 18.6 14.6 4.8 40 6.7 NW 15 20 8 11 1020.2 1020.5 0.0
31/02:30pm 18.5 14.5 4.7 40 6.7 NW 15 20 8 11 1020.4 1020.7 0.0
31/02:00pm 18.3 14.2 4.5 40 6.6 NW 15 20 8 11 1020.7 1021.0 0.0
31/01:30pm 17.7 14.3 3.9 40 6.5 N 11 17 6 9 1020.9 1021.2 0.0
31/01:00pm 17.2 12.8 2.8 38 6.6 NNW 15 20 8 11 1021.0 1021.3 0.0

Other Formats:

Comma delimited format used in spreadsheet applications
http://www.bom.gov.au/fwo/IDN60801/IDN60801.95758.axf

JavaScript Object Notation format (JSON) in row-major order
http://www.bom.gov.au/fwo/IDN60801/IDN60801.95758.json